Pagrindinis puslapis
METAR-TAF:

METAR-TAF

Oro uostai :

Sleetmute, Aliaska, Jungtinės Amerikos Valstijos

platuma: 61-43N, ilguma: 157-09W, Aukštis: 54 m

Dabartinis oras

Ataskaita buvo paskelbta 1 valandą ir 6 minutes, ne 20:56 UTC
Ramus vėjas
Temperatūra 7°C
Drėgmė 66%
Slėgis 1005 hPa
Matomumas: 16.1 km
Giedras dangus

METAR: PASL 212056Z AUTO 00000KT 10SM CLR 07/01 A2967 RMK AO2 SLP045 T00670006 51001

Laikas: 14:02 (22:02 UTC)


TAF: trūkstamas

Orai ataskaitas ir orų prognozės (METAR, TAF).

turimą stotys yra geltonos ir raudonos taškus žemėlapyje.

Perkelti pele per norėdami pamatyti stoties vardą.

Tada spustelėkite, norėdami matyti oro stebėjimo ir prognozės.

Norėdami pakeisti žemėlapį: spustelėkite ant žalios mygtukų su juodo kryžiaus žemyn,; žalią mygtuką su brūkšneliu, jei norite nutolinti; arba žalių rodyklių gretimoms žemėlapius.


METAR-TAF: